createdAt,value
2019-03-26T00:02:05.997Z,6.30
2019-03-26T00:04:41.151Z,6.55
2019-03-26T00:07:11.905Z,6.70
2019-03-26T00:09:42.761Z,5.35
2019-03-26T00:12:13.615Z,6.42
2019-03-26T00:14:44.249Z,6.20
2019-03-26T00:17:19.096Z,6.53
2019-03-26T00:19:51.279Z,5.80
2019-03-26T00:22:22.156Z,6.08
2019-03-26T00:24:56.785Z,6.28
2019-03-26T00:27:27.651Z,6.70
2019-03-26T00:29:58.288Z,5.60
2019-03-26T00:32:29.056Z,6.58
2019-03-26T00:34:59.707Z,6.30
2019-03-26T00:37:30.562Z,6.72
2019-03-26T00:40:01.423Z,6.25
2019-03-26T00:42:32.175Z,6.10
2019-03-26T00:45:02.836Z,7.97
2019-03-26T00:47:33.682Z,6.70
2019-03-26T00:50:05.428Z,7.03
2019-03-26T00:52:36.212Z,6.87
2019-03-26T00:55:21.601Z,6.75
2019-03-26T00:57:41.505Z,7.75
2019-03-26T01:00:12.259Z,9.93
2019-03-26T01:02:42.913Z,9.55
2019-03-26T01:05:13.663Z,7.70
2019-03-26T01:07:44.417Z,8.70
2019-03-26T01:10:18.244Z,8.68
2019-03-26T01:12:48.892Z,8.80
2019-03-26T01:15:19.747Z,9.65
2019-03-26T01:17:50.501Z,8.03
2019-03-26T01:20:21.258Z,7.42
2019-03-26T01:22:51.991Z,7.72
2019-03-26T01:25:22.904Z,7.60
2019-03-26T01:27:53.720Z,8.70
2019-03-26T01:30:24.371Z,7.17
2019-03-26T01:32:55.229Z,8.40
2019-03-26T01:35:27.520Z,7.50
2019-03-26T01:37:59.684Z,7.65
2019-03-26T01:40:30.252Z,7.08
2019-03-26T01:43:00.988Z,7.10
2019-03-26T01:45:31.863Z,6.95
2019-03-26T01:48:02.613Z,7.28
2019-03-26T01:50:33.251Z,7.33
2019-03-26T01:53:04.122Z,5.83
2019-03-26T01:55:34.964Z,6.30
2019-03-26T01:58:06.533Z,7.05
2019-03-26T02:00:37.307Z,6.62
2019-03-26T02:03:07.956Z,7.00
2019-03-26T02:05:38.693Z,7.10
2019-03-26T02:08:09.570Z,6.75
2019-03-26T02:10:40.323Z,8.00
2019-03-26T02:13:10.957Z,6.15
2019-03-26T02:15:41.706Z,7.47
2019-03-26T02:18:12.584Z,7.08
2019-03-26T02:20:43.218Z,7.47
2019-03-26T02:25:43.822Z,6.47
2019-03-26T02:28:14.478Z,6.92
2019-03-26T02:30:45.331Z,7.22
2019-03-26T02:33:16.086Z,6.35
2019-03-26T02:35:46.836Z,7.55
2019-03-26T02:38:17.594Z,6.53
2019-03-26T02:40:48.449Z,7.00
2019-03-26T02:43:19.080Z,6.85
2019-03-26T02:45:49.957Z,5.75
2019-03-26T02:48:20.692Z,6.53
2019-03-26T02:50:51.679Z,6.70
2019-03-26T02:55:51.929Z,6.12
2019-03-26T02:58:22.701Z,6.40
2019-03-26T03:00:53.336Z,7.10
2019-03-26T03:05:53.946Z,6.33
2019-03-26T03:08:24.683Z,6.95
2019-03-26T03:10:55.533Z,7.58
2019-03-26T03:13:26.304Z,6.95
2019-03-26T03:15:57.080Z,5.97
2019-03-26T03:18:27.711Z,7.55
2019-03-26T03:20:58.447Z,7.05
2019-03-26T03:23:29.222Z,6.62
2019-03-26T03:25:59.851Z,7.30
2019-03-26T03:31:00.560Z,6.40
2019-03-26T03:33:31.018Z,7.62
2019-03-26T03:38:31.476Z,7.23
2019-03-26T03:41:02.246Z,6.70
2019-03-26T03:43:33.098Z,7.55
2019-03-26T03:46:04.162Z,8.10
2019-03-26T03:48:34.489Z,8.03
2019-03-26T03:53:34.973Z,8.13
2019-03-26T03:58:35.783Z,8.70
2019-03-26T04:01:06.548Z,8.45
2019-03-26T04:03:37.176Z,8.78
2019-03-26T04:06:09.926Z,7.70
2019-03-26T04:08:40.417Z,9.48
2019-03-26T04:11:11.074Z,9.18
2019-03-26T04:16:11.681Z,9.83
2019-03-26T04:18:42.204Z,8.93
2019-03-26T04:21:13.086Z,8.50
2019-03-26T04:23:43.935Z,8.55
2019-03-26T04:26:14.691Z,9.18
2019-03-26T04:28:45.448Z,8.68
2019-03-26T04:31:16.314Z,9.30
2019-03-26T04:33:46.943Z,8.70
2019-03-26T04:36:25.679Z,8.40
2019-03-26T04:38:49.993Z,9.15
2019-03-26T04:41:20.731Z,10.15
2019-03-26T04:43:51.492Z,10.10
2019-03-26T04:46:22.132Z,9.75
2019-03-26T04:48:53.010Z,10.32
2019-03-26T04:51:23.762Z,8.78
2019-03-26T04:53:54.398Z,8.95
2019-03-26T04:56:25.270Z,8.63
2019-03-26T04:58:56.434Z,9.18
2019-03-26T05:01:26.862Z,8.13
2019-03-26T05:03:57.531Z,8.75
2019-03-26T05:06:38.039Z,8.80
2019-03-26T05:09:00.981Z,8.00
2019-03-26T05:11:31.632Z,9.35
2019-03-26T05:14:02.494Z,8.45
2019-03-26T05:16:33.352Z,9.43
2019-03-26T05:19:03.980Z,8.70
2019-03-26T05:21:34.633Z,13.05
2019-03-26T05:26:35.340Z,11.33
2019-03-26T05:31:35.721Z,9.35
2019-03-26T05:34:06.474Z,10.53
2019-03-26T05:36:50.401Z,13.08
2019-03-26T05:39:09.317Z,14.07
2019-03-26T05:41:40.048Z,10.18
2019-03-26T05:44:10.924Z,9.28
2019-03-26T05:46:41.557Z,9.25
2019-03-26T05:51:42.044Z,11.40
2019-03-26T05:54:12.815Z,11.00
2019-03-26T05:56:43.465Z,12.35
2019-03-26T05:59:15.344Z,12.07
2019-03-26T06:01:46.301Z,11.93
2019-03-26T06:04:17.054Z,11.20
2019-03-26T06:06:47.712Z,13.83
2019-03-26T06:09:18.769Z,12.80
2019-03-26T06:11:49.522Z,10.30
2019-03-26T06:14:20.157Z,11.88
2019-03-26T06:19:20.745Z,11.53
2019-03-26T06:24:21.336Z,12.88
2019-03-26T06:26:51.982Z,14.47
2019-03-26T06:29:22.734Z,13.85
2019-03-26T06:31:53.613Z,14.98
2019-03-26T06:34:24.246Z,12.65
2019-03-26T06:36:55.014Z,12.73
2019-03-26T06:39:25.678Z,14.03
2019-03-26T06:41:56.407Z,12.55
2019-03-26T06:44:27.175Z,12.82
2019-03-26T06:46:57.931Z,13.65
2019-03-26T06:49:28.584Z,15.32
2019-03-26T06:51:59.214Z,13.70
2019-03-26T06:54:29.972Z,15.55
2019-03-26T06:57:00.740Z,17.30
2019-03-26T06:59:32.502Z,15.28
2019-03-26T07:02:03.169Z,16.57
2019-03-26T07:04:34.028Z,14.63
2019-03-26T07:07:04.864Z,15.58
2019-03-26T07:09:35.518Z,15.30
2019-03-26T07:14:37.348Z,15.58
2019-03-26T07:17:08.100Z,16.05
2019-03-26T07:19:38.755Z,15.58
2019-03-26T07:22:11.144Z,16.67
2019-03-26T07:24:41.927Z,16.77
2019-03-26T07:27:12.652Z,13.90
2019-03-26T07:29:43.304Z,15.32
2019-03-26T07:32:15.494Z,16.37
2019-03-26T07:34:46.157Z,18.77
2019-03-26T07:37:17.304Z,17.98
2019-03-26T07:39:48.166Z,18.37
2019-03-26T07:42:19.018Z,19.40
2019-03-26T07:44:49.649Z,17.92
2019-03-26T07:49:50.239Z,15.25
2019-03-26T07:52:20.916Z,17.48
2019-03-26T07:54:52.462Z,17.23
2019-03-26T07:57:24.006Z,20.15
2019-03-26T07:59:55.415Z,17.73
2019-03-26T08:02:26.289Z,17.20
2019-03-26T08:04:57.029Z,18.48
2019-03-26T08:07:27.805Z,18.05
2019-03-26T08:09:58.430Z,18.60
2019-03-26T08:12:29.168Z,19.73
2019-03-26T08:15:00.420Z,21.23
2019-03-26T08:17:31.206Z,21.23
2019-03-26T08:20:01.944Z,20.27
2019-03-26T08:22:32.596Z,19.37
2019-03-26T08:25:04.184Z,18.67
2019-03-26T08:27:34.628Z,17.85
2019-03-26T08:30:07.126Z,20.20
2019-03-26T08:32:37.573Z,19.45
2019-03-26T08:35:08.325Z,19.52
2019-03-26T08:37:38.966Z,19.05
2019-03-26T08:42:39.562Z,17.67
2019-03-26T08:45:10.216Z,20.80
2019-03-26T08:47:41.071Z,21.23
2019-03-26T08:50:12.029Z,21.15
2019-03-26T08:52:42.475Z,24.80
2019-03-26T08:55:13.316Z,25.15
2019-03-26T08:57:43.885Z,29.48
2019-03-26T09:00:14.744Z,33.30
2019-03-26T09:02:45.492Z,33.75
2019-03-26T09:05:16.141Z,34.08
2019-03-26T09:07:46.879Z,35.63
2019-03-26T09:10:17.530Z,37.05
2019-03-26T09:12:48.302Z,33.55
2019-03-26T09:15:18.937Z,20.32
2019-03-26T09:17:49.605Z,18.70
2019-03-26T09:20:20.463Z,19.85
2019-03-26T09:22:51.095Z,20.25
2019-03-26T09:25:21.744Z,21.45
2019-03-26T09:32:52.986Z,26.02
2019-03-26T09:35:23.756Z,29.15
2019-03-26T09:37:54.645Z,30.82
2019-03-26T09:40:25.371Z,32.98
2019-03-26T09:42:56.002Z,32.70
2019-03-26T09:45:26.755Z,32.30
2019-03-26T09:47:57.526Z,32.55
2019-03-26T09:50:33.573Z,35.98
2019-03-26T09:53:04.439Z,33.78
2019-03-26T09:58:04.841Z,35.55
2019-03-26T10:00:36.152Z,34.40
2019-03-26T10:03:07.171Z,36.33
2019-03-26T10:05:37.797Z,34.75
2019-03-26T10:10:38.386Z,28.60
2019-03-26T10:13:09.157Z,30.43
2019-03-26T10:15:39.893Z,30.10
2019-03-26T10:18:10.770Z,28.67
2019-03-26T10:20:41.521Z,30.32
2019-03-26T10:23:12.172Z,30.48
2019-03-26T10:25:42.915Z,29.63
2019-03-26T10:28:13.559Z,33.53
2019-03-26T10:30:44.330Z,33.85
2019-03-26T10:33:14.993Z,36.68
2019-03-26T10:35:45.721Z,39.75
2019-03-26T10:38:16.371Z,41.18
2019-03-26T10:40:47.027Z,42.58
2019-03-26T10:43:17.693Z,42.15
2019-03-26T10:45:48.427Z,43.52
2019-03-26T10:48:19.184Z,44.93
2019-03-26T10:50:49.837Z,45.10
2019-03-26T10:53:20.486Z,47.10
2019-03-26T10:58:21.074Z,45.48
2019-03-26T11:00:52.867Z,48.28
2019-03-26T11:03:23.316Z,46.23
2019-03-26T11:05:53.970Z,48.05
2019-03-26T11:08:24.822Z,45.67
2019-03-26T11:10:55.456Z,39.53
2019-03-26T11:13:26.108Z,33.80
2019-03-26T11:18:26.591Z,32.65
2019-03-26T11:21:02.793Z,33.95
2019-03-26T11:23:29.445Z,35.92
2019-03-26T11:26:00.303Z,38.63
2019-03-26T11:28:31.059Z,44.20
2019-03-26T11:31:01.693Z,36.08
2019-03-26T11:33:32.358Z,38.63
2019-03-26T11:36:03.096Z,42.55
2019-03-26T11:38:33.969Z,44.10
2019-03-26T11:41:04.723Z,44.30
2019-03-26T11:43:35.254Z,45.35
2019-03-26T11:46:06.133Z,45.00
2019-03-26T11:48:36.864Z,42.73
2019-03-26T11:51:07.643Z,43.42
2019-03-26T11:53:38.279Z,42.00
2019-03-26T11:56:09.150Z,40.70
2019-03-26T11:58:39.899Z,40.88
2019-03-26T12:01:10.940Z,39.45
2019-03-26T12:03:41.816Z,41.02
2019-03-26T12:06:12.570Z,41.73
2019-03-26T12:08:43.326Z,40.35
2019-03-26T12:11:14.189Z,40.65
2019-03-26T12:13:45.036Z,39.40
2019-03-26T12:16:15.790Z,40.23
2019-03-26T12:18:46.440Z,40.00
2019-03-26T12:21:17.279Z,38.70
2019-03-26T12:23:48.034Z,39.23
2019-03-26T12:26:18.685Z,37.25
2019-03-26T12:28:49.337Z,38.58
2019-03-26T12:31:20.218Z,42.03
2019-03-26T12:33:50.965Z,40.45
2019-03-26T12:36:21.720Z,46.25
2019-03-26T12:38:52.351Z,46.77
2019-03-26T12:41:23.107Z,38.78
2019-03-26T12:43:53.879Z,37.10
2019-03-26T12:46:24.634Z,44.23
2019-03-26T12:48:55.284Z,49.13
2019-03-26T12:51:26.017Z,48.85
2019-03-26T12:53:56.773Z,47.40
2019-03-26T12:56:27.544Z,45.95
2019-03-26T12:58:58.197Z,47.23
2019-03-26T13:01:29.363Z,37.33
2019-03-26T13:04:11.900Z,37.73
2019-03-26T13:06:32.093Z,40.33
2019-03-26T13:09:02.949Z,42.55
2019-03-26T13:11:33.382Z,41.35
2019-03-26T13:14:04.250Z,43.25
2019-03-26T13:16:35.005Z,41.42
2019-03-26T13:19:05.659Z,39.92
2019-03-26T13:21:37.595Z,44.35
2019-03-26T13:24:11.297Z,42.33
2019-03-26T13:26:40.476Z,40.30
2019-03-26T13:29:11.230Z,40.55
2019-03-26T13:31:41.982Z,39.30
2019-03-26T13:34:12.719Z,38.35
2019-03-26T13:36:43.592Z,38.98
2019-03-26T13:39:14.226Z,37.83
2019-03-26T13:41:44.882Z,38.10
2019-03-26T13:44:15.652Z,37.30
2019-03-26T13:46:46.387Z,37.78
2019-03-26T13:51:47.985Z,36.48
2019-03-26T13:54:18.647Z,34.05
2019-03-26T13:56:49.522Z,30.60
2019-03-26T13:59:20.377Z,30.23
2019-03-26T14:01:52.262Z,29.90
2019-03-26T14:04:23.010Z,29.92
2019-03-26T14:06:53.545Z,28.15
2019-03-26T14:09:24.306Z,30.32
2019-03-26T14:11:57.582Z,28.38
2019-03-26T14:14:27.163Z,29.23
2019-03-26T14:16:57.792Z,27.55
2019-03-26T14:19:28.659Z,26.95
2019-03-26T14:21:59.414Z,26.10
2019-03-26T14:24:30.066Z,26.27
2019-03-26T14:27:00.921Z,27.35
2019-03-26T14:29:31.676Z,26.30
2019-03-26T14:32:02.431Z,25.32
2019-03-26T14:34:33.081Z,24.43
2019-03-26T14:37:03.815Z,24.25
2019-03-26T14:39:34.589Z,31.97
2019-03-26T14:42:05.342Z,30.88
2019-03-26T14:44:35.992Z,26.35
2019-03-26T14:47:06.730Z,31.27
2019-03-26T14:49:37.382Z,31.10
2019-03-26T14:52:08.032Z,27.37
2019-03-26T14:54:38.703Z,24.05
2019-03-26T14:57:09.558Z,22.52
2019-03-26T14:59:40.421Z,20.15
2019-03-26T15:02:11.168Z,16.75
2019-03-26T15:04:41.701Z,19.35
2019-03-26T15:07:12.574Z,18.25
2019-03-26T15:09:43.325Z,16.62
2019-03-26T15:12:13.961Z,17.98
2019-03-26T15:14:44.616Z,17.32
2019-03-26T15:17:15.485Z,19.62
2019-03-26T15:19:46.240Z,16.42
2019-03-26T15:22:16.998Z,17.85
2019-03-26T15:24:47.527Z,19.23
2019-03-26T15:27:18.399Z,22.62
2019-03-26T15:29:49.255Z,19.77
2019-03-26T15:32:19.991Z,16.95
2019-03-26T15:34:50.868Z,18.57
2019-03-26T15:37:22.625Z,16.73
2019-03-26T15:39:55.548Z,19.77
2019-03-26T15:42:26.199Z,17.70
2019-03-26T15:44:57.052Z,19.80
2019-03-26T15:47:27.804Z,18.45
2019-03-26T15:49:58.560Z,17.37
2019-03-26T15:52:29.417Z,19.05
2019-03-26T15:55:00.459Z,19.40
2019-03-26T15:57:31.536Z,17.32
2019-03-26T16:00:02.120Z,19.62
2019-03-26T16:02:40.293Z,21.30
2019-03-26T16:05:10.939Z,20.52
2019-03-26T16:07:41.712Z,22.30
2019-03-26T16:10:12.362Z,20.92
2019-03-26T16:12:43.205Z,18.50
2019-03-26T16:15:13.974Z,19.65
2019-03-26T16:17:44.725Z,19.90
2019-03-26T16:20:15.585Z,19.40
2019-03-26T16:22:46.439Z,19.30
2019-03-26T16:25:17.196Z,21.12
2019-03-26T16:27:47.826Z,20.45
2019-03-26T16:32:48.105Z,21.30
2019-03-26T16:37:48.592Z,21.70
2019-03-26T16:40:19.349Z,23.73
2019-03-26T16:42:50.120Z,22.77
2019-03-26T16:45:20.976Z,22.70
2019-03-26T16:47:51.610Z,22.90
2019-03-26T16:52:52.109Z,24.00
2019-03-26T16:55:22.868Z,25.55
2019-03-26T16:57:53.514Z,25.82
2019-03-26T17:00:32.432Z,24.00
2019-03-26T17:03:04.026Z,23.52
2019-03-26T17:05:34.657Z,25.32
2019-03-26T17:08:05.431Z,23.77
2019-03-26T17:10:36.267Z,24.72
2019-03-26T17:13:07.157Z,25.02
2019-03-26T17:15:37.896Z,24.25
2019-03-26T17:18:09.162Z,24.85
2019-03-26T17:20:40.024Z,24.43
2019-03-26T17:23:10.753Z,26.65
2019-03-26T17:25:41.422Z,29.15
2019-03-26T17:28:12.260Z,28.60
2019-03-26T17:30:43.031Z,27.17
2019-03-26T17:33:13.786Z,26.57
2019-03-26T17:35:44.436Z,28.45
2019-03-26T17:38:15.295Z,27.22
2019-03-26T17:40:46.148Z,26.02
2019-03-26T17:43:16.906Z,25.10
2019-03-26T17:45:50.113Z,27.32
2019-03-26T17:48:20.865Z,27.58
2019-03-26T17:50:51.726Z,27.00
2019-03-26T17:53:22.479Z,27.90
2019-03-26T17:55:53.230Z,24.30
2019-03-26T17:58:23.866Z,25.12
2019-03-26T18:00:56.391Z,25.02
2019-03-26T18:03:28.447Z,24.07
2019-03-26T18:06:04.739Z,26.85
2019-03-26T18:08:35.296Z,27.13
2019-03-26T18:11:06.244Z,27.55
2019-03-26T18:13:39.247Z,26.57
2019-03-26T18:16:09.797Z,26.20
2019-03-26T18:18:41.188Z,25.62
2019-03-26T18:21:11.804Z,28.67
2019-03-26T18:23:43.044Z,27.30
2019-03-26T18:26:13.510Z,26.87
2019-03-26T18:28:44.181Z,27.70
2019-03-26T18:31:24.143Z,28.40
2019-03-26T18:34:01.418Z,26.45
2019-03-26T18:36:37.794Z,26.87
2019-03-26T18:39:09.073Z,25.45
2019-03-26T18:41:39.823Z,26.60
2019-03-26T18:44:10.695Z,30.17
2019-03-26T18:46:41.449Z,26.95
2019-03-26T18:49:12.311Z,27.80
2019-03-26T18:51:43.372Z,29.40
2019-03-26T18:54:14.225Z,25.43
2019-03-26T18:56:44.872Z,28.47
2019-03-26T18:59:15.712Z,27.98
2019-03-26T19:01:46.482Z,26.55
2019-03-26T19:04:18.368Z,25.48
2019-03-26T19:06:49.125Z,25.50
2019-03-26T19:09:19.749Z,26.97
2019-03-26T19:11:58.310Z,23.35
2019-03-26T19:14:29.472Z,21.73
2019-03-26T19:16:59.887Z,21.70
2019-03-26T19:19:30.663Z,21.33
2019-03-26T19:22:01.413Z,20.43
2019-03-26T19:24:32.372Z,21.52
2019-03-26T19:27:04.968Z,20.80
